Time;durP1;ratioP1;P1;durP2;ratioP2;P2;SDS_P1;SDS_P2;PMS_P1;PMS_P2;Temp;Humidity;BMP_temperature;BMP_pressure;BME280_temperature;BME280_humidity;BME280_pressure;Samples;Min_cycle;Max_cycle;Signal;HPM_P1;HPM_P2
2023/01/28 00:00:33;;;;;;;29.40;11.05;;;;;;;1.90;100.00;102164.22;5066741;28;20478;-81
2023/01/28 00:02:59;;;;;;;27.58;11.73;;;;;;;1.83;100.00;102160.97;5065364;28;20105;-81
2023/01/28 00:05:24;;;;;;;24.73;11.45;;;;;;;1.78;100.00;102175.88;5058861;28;20465;-81
2023/01/28 00:07:50;;;;;;;21.35;12.60;;;;;;;1.75;100.00;102166.41;5030733;28;20792;-81
2023/01/28 00:10:17;;;;;;;19.15;9.48;;;;;;;1.67;100.00;102160.53;5050031;28;20044;-81
2023/01/28 00:12:42;;;;;;;21.55;9.75;;;;;;;1.62;100.00;102163.28;5052528;28;20041;-80
2023/01/28 00:15:10;;;;;;;28.77;10.32;;;;;;;1.57;100.00;102168.63;5062345;28;20113;-80
2023/01/28 00:17:36;;;;;;;20.65;9.18;;;;;;;1.54;100.00;102160.91;5053083;28;20039;-81
2023/01/28 00:20:03;;;;;;;17.77;9.02;;;;;;;1.57;100.00;102153.00;5052421;28;20059;-81
2023/01/28 00:22:29;;;;;;;18.13;9.90;;;;;;;1.56;100.00;102147.81;5051035;28;20067;-81
2023/01/28 00:24:55;;;;;;;25.38;10.43;;;;;;;1.54;100.00;102144.41;5036928;28;20071;-81
2023/01/28 00:27:20;;;;;;;23.08;10.48;;;;;;;1.53;100.00;102137.47;5064770;28;20415;-81
2023/01/28 00:29:47;;;;;;;19.92;9.35;;;;;;;1.51;100.00;102136.66;5030985;28;20677;-81
2023/01/28 00:32:13;;;;;;;20.70;10.00;;;;;;;1.52;100.00;102141.84;5059040;28;20033;-81
2023/01/28 00:34:39;;;;;;;19.08;9.27;;;;;;;1.52;100.00;102135.75;5043164;28;20033;-81
2023/01/28 00:37:06;;;;;;;20.42;9.45;;;;;;;1.51;100.00;102140.13;5053755;28;20083;-81
2023/01/28 00:39:32;;;;;;;15.50;9.13;;;;;;;1.52;100.00;102149.66;5043703;28;20068;-81
2023/01/28 00:42:00;;;;;;;21.73;9.02;;;;;;;1.48;100.00;102146.25;5053760;28;20031;-81
2023/01/28 00:44:26;;;;;;;20.50;9.32;;;;;;;1.47;100.00;102138.50;5043425;28;20025;-81
2023/01/28 00:46:52;;;;;;;20.38;9.05;;;;;;;1.49;100.00;102154.94;5054525;28;20432;-81
2023/01/28 00:49:21;;;;;;;20.60;9.30;;;;;;;1.48;100.00;102156.69;5028865;28;20347;-81
2023/01/28 00:51:47;;;;;;;22.58;9.68;;;;;;;1.52;100.00;102144.44;5067231;28;20039;-80
2023/01/28 00:54:15;;;;;;;20.30;8.95;;;;;;;1.53;100.00;102140.91;5066469;28;20452;-81
2023/01/28 00:56:41;;;;;;;19.35;8.88;;;;;;;1.51;100.00;102139.28;5025765;28;20045;-81
2023/01/28 00:59:06;;;;;;;28.52;10.68;;;;;;;1.53;100.00;102132.28;5055844;28;20035;-80
2023/01/28 01:01:33;;;;;;;26.02;9.45;;;;;;;1.57;100.00;102124.31;5057986;28;20048;-80
2023/01/28 01:04:01;;;;;;;23.70;10.02;;;;;;;1.56;100.00;102121.75;5078500;28;20433;-81
2023/01/28 01:06:34;;;;;;;24.27;9.52;;;;;;;1.54;100.00;102110.50;5032946;28;20051;-81
2023/01/28 01:09:01;;;;;;;24.40;10.55;;;;;;;1.47;100.00;102110.69;5036856;28;20036;-81
2023/01/28 01:11:27;;;;;;;21.30;9.18;;;;;;;1.46;100.00;102106.38;5033521;28;20063;-81
2023/01/28 01:13:55;;;;;;;25.75;9.95;;;;;;;1.47;100.00;102102.88;5064858;28;20085;-81
2023/01/28 01:16:26;;;;;;;17.95;8.27;;;;;;;1.47;100.00;102099.41;5021953;28;20037;-81
2023/01/28 01:18:53;;;;;;;21.33;9.38;;;;;;;1.47;100.00;102099.41;5036927;28;20040;-80
2023/01/28 01:21:23;;;;;;;26.70;9.85;;;;;;;1.51;100.00;102105.38;5043127;28;20043;-80
2023/01/28 01:23:49;;;;;;;19.75;8.82;;;;;;;1.47;100.00;102105.47;5042471;28;20061;-80
2023/01/28 01:26:15;;;;;;;18.65;9.00;;;;;;;1.51;100.00;102108.00;5031933;28;20096;-81
2023/01/28 01:28:41;;;;;;;19.52;9.77;;;;;;;1.51;100.00;102106.25;5062942;28;20538;-81
2023/01/28 01:31:13;;;;;;;19.95;10.85;;;;;;;1.57;100.00;102103.47;5033187;28;20037;-80
2023/01/28 01:33:40;;;;;;;20.48;8.63;;;;;;;1.58;100.00;102096.47;5032774;28;20092;-80
2023/01/28 01:36:07;;;;;;;18.58;9.27;;;;;;;1.58;100.00;102097.34;5051848;28;20033;-80
2023/01/28 01:38:32;;;;;;;17.08;9.48;;;;;;;1.58;100.00;102097.34;5070371;28;20401;-80
2023/01/28 01:40:59;;;;;;;24.30;10.25;;;;;;;1.61;100.00;102096.38;5058916;28;20044;-81
2023/01/28 01:44:06;;;;;;;21.55;9.48;;;;;;;1.64;100.00;102104.13;5052897;28;20075;-81
2023/01/28 01:46:38;;;;;;;20.70;11.00;;;;;;;1.68;100.00;102117.94;4969232;28;20149;-80
2023/01/28 01:49:18;;;;;;;23.15;9.45;;;;;;;1.68;100.00;102110.09;4958410;28;20101;-81
2023/01/28 01:51:46;;;;;;;20.90;9.45;;;;;;;1.71;100.00;102110.00;5030902;28;20045;-81
2023/01/28 01:54:13;;;;;;;22.00;9.93;;;;;;;1.74;100.00;102109.94;5040055;28;20045;-80
2023/01/28 01:56:43;;;;;;;18.33;9.38;;;;;;;1.78;100.00;102111.56;5068655;28;20124;-80
2023/01/28 01:59:13;;;;;;;21.58;9.60;;;;;;;1.81;100.00;102114.06;5058304;28;20044;-81
2023/01/28 02:01:41;;;;;;;20.33;10.07;;;;;;;1.83;100.00;102109.66;5051632;28;20048;-81
2023/01/28 02:04:37;;;;;;;18.83;10.48;;;;;;;1.84;100.00;102098.34;5043906;28;20033;-81
2023/01/28 02:07:04;;;;;;;20.33;9.23;;;;;;;1.86;100.00;102100.91;5031805;28;20376;-81
2023/01/28 02:09:33;;;;;;;21.75;9.85;;;;;;;1.91;100.00;102111.19;5050115;28;20033;-81
2023/01/28 02:12:03;;;;;;;19.67;10.18;;;;;;;1.86;100.00;102108.72;5045337;28;20123;-81
2023/01/28 02:14:34;;;;;;;24.10;10.35;;;;;;;1.89;100.00;102105.16;5027797;28;20040;-81
2023/01/28 02:17:00;;;;;;;23.17;10.00;;;;;;;1.93;100.00;102114.59;5030298;28;20037;-81
2023/01/28 02:19:33;;;;;;;17.38;8.98;;;;;;;2.02;100.00;102116.06;5061842;28;20064;-80
2023/01/28 02:22:34;;;;;;;21.95;10.80;;;;;;;2.04;100.00;102115.13;5022815;28;20049;-80
2023/01/28 02:25:24;;;;;;;22.00;9.05;;;;;;;2.06;100.00;102108.09;5021614;28;20092;-80
2023/01/28 02:27:56;;;;;;;18.80;8.82;;;;;;;2.10;100.00;102106.28;5022670;28;20054;-81
2023/01/28 02:30:36;;;;;;;18.20;9.20;;;;;;;2.13;100.00;102110.53;5010568;28;20449;-81
2023/01/28 02:33:17;;;;;;;20.25;9.00;;;;;;;2.14;100.00;102118.31;5028074;28;20033;-81
2023/01/28 02:35:52;;;;;;;19.77;8.95;;;;;;;2.16;100.00;102121.72;5017977;28;20041;-81
2023/01/28 02:38:25;;;;;;;19.60;8.65;;;;;;;2.20;100.00;102136.38;5034554;28;20048;-80
2023/01/28 02:41:08;;;;;;;18.98;9.15;;;;;;;2.21;100.00;102143.28;5059027;28;20123;-80
2023/01/28 02:43:39;;;;;;;21.02;10.25;;;;;;;2.21;100.00;102132.03;5017582;28;20409;-80
2023/01/28 02:49:19;;;;;;;21.92;9.48;;;;;;;2.30;100.00;102113.47;5012133;28;20469;-80
2023/01/28 02:52:19;;;;;;;17.33;8.85;;;;;;;2.27;100.00;102104.88;5062016;28;20370;-81
2023/01/28 02:55:02;;;;;;;26.33;10.68;;;;;;;2.23;100.00;102097.13;5038150;28;20029;-80
2023/01/28 02:57:42;;;;;;;23.73;9.52;;;;;;;2.21;100.00;102096.31;5053118;28;20132;-80
2023/01/28 03:00:20;;;;;;;20.35;9.27;;;;;;;2.19;100.00;102098.16;5034326;28;22102;-81
2023/01/28 03:02:53;;;;;;;17.65;8.55;;;;;;;2.17;100.00;102097.34;5014903;28;20049;-81
2023/01/28 03:05:27;;;;;;;18.25;8.90;;;;;;;2.07;100.00;102088.94;5020750;28;20082;-80
2023/01/28 03:07:53;;;;;;;12.45;8.40;;;;;;;1.91;100.00;102083.34;5028925;28;20164;-80
2023/01/28 03:10:23;;;;;;;17.50;10.13;;;;;;;1.80;100.00;102096.69;5037708;28;20041;-81
2023/01/28 03:39:05;;;;;;;17.17;8.18;;;;;;;2.15;100.00;102074.81;5019589;28;20649;-80
2023/01/28 03:41:31;;;;;;;19.02;7.93;;;;;;;2.17;100.00;102075.59;5034111;28;20049;-80
2023/01/28 03:46:44;;;;;;;17.33;8.35;;;;;;;2.18;100.00;102072.13;5025498;28;20421;-80
2023/01/28 03:49:10;;;;;;;18.20;7.43;;;;;;;2.20;100.00;102072.91;5027399;28;20222;-80
2023/01/28 03:51:36;;;;;;;15.18;7.75;;;;;;;2.21;100.00;102077.22;5011993;28;20049;-79
2023/01/28 03:54:02;;;;;;;15.95;8.07;;;;;;;2.26;100.00;102077.94;5028925;28;20485;-80
2023/01/28 03:56:31;;;;;;;14.68;7.57;;;;;;;2.30;100.00;102083.91;5015761;28;20515;-81
2023/01/28 03:58:58;;;;;;;20.33;8.30;;;;;;;2.30;100.00;102089.13;5023626;28;20035;-80
2023/01/28 04:01:24;;;;;;;16.45;8.10;;;;;;;2.28;100.00;102089.16;5040200;28;20036;-80
2023/01/28 04:03:50;;;;;;;20.63;7.60;;;;;;;2.30;100.00;102089.97;5039886;28;20059;-80
2023/01/28 04:06:27;;;;;;;18.88;7.30;;;;;;;2.34;100.00;102080.31;5022380;28;20398;-80
2023/01/28 04:08:55;;;;;;;15.55;7.72;;;;;;;2.40;100.00;102094.91;5048295;28;20072;-80
2023/01/28 04:11:39;;;;;;;19.50;8.05;;;;;;;2.41;100.00;102087.00;5032376;28;20048;-81
2023/01/28 04:14:07;;;;;;;17.80;7.07;;;;;;;2.42;100.00;102087.88;4994399;28;20129;-80
2023/01/28 04:16:47;;;;;;;17.83;6.90;;;;;;;2.45;100.00;102079.94;5038512;28;20442;-80
2023/01/28 04:19:15;;;;;;;14.77;6.90;;;;;;;2.47;100.00;102072.91;5014376;28;20029;-80
2023/01/28 04:21:41;;;;;;;15.48;6.35;;;;;;;2.49;100.00;102065.88;5029497;28;20045;-80
2023/01/28 04:24:07;;;;;;;10.93;5.80;;;;;;;2.48;100.00;102059.78;5009429;28;20026;-81
2023/01/28 04:26:34;;;;;;;11.90;5.18;;;;;;;2.53;100.00;102066.63;5028504;28;20083;-81
2023/01/28 04:29:00;;;;;;;18.17;7.88;;;;;;;2.56;100.00;102054.34;5026576;28;20033;-80
2023/01/28 04:31:26;;;;;;;18.08;5.85;;;;;;;2.56;100.00;102063.94;5029796;28;20055;-80
2023/01/28 04:34:05;;;;;;;13.70;6.05;;;;;;;2.55;100.00;102081.34;5050384;28;20037;-80
2023/01/28 04:36:57;;;;;;;16.08;5.60;;;;;;;2.55;100.00;102085.72;5024064;28;20080;-80
2023/01/28 04:39:39;;;;;;;16.00;5.72;;;;;;;2.60;100.00;102084.66;5047270;28;20044;-80
2023/01/28 04:42:37;;;;;;;16.90;5.85;;;;;;;2.65;100.00;102089.72;5025244;28;20115;-80
2023/01/28 04:45:26;;;;;;;16.50;6.65;;;;;;;2.64;100.00;102077.59;5009078;28;20036;-80
2023/01/28 04:48:19;;;;;;;11.60;5.47;;;;;;;2.69;100.00;102078.25;5017696;28;20111;-80
2023/01/28 04:50:53;;;;;;;22.52;5.13;;;;;;;2.72;100.00;102082.53;5034765;28;20033;-80
2023/01/28 04:53:42;;;;;;;14.52;5.68;;;;;;;2.75;100.00;102087.66;5048424;28;20029;-80
2023/01/28 04:56:23;;;;;;;18.88;4.90;;;;;;;2.79;100.00;102091.84;5036752;28;20034;-80
2023/01/28 04:58:49;;;;;;;11.70;5.13;;;;;;;2.82;100.00;102101.38;5015312;28;20026;-80
2023/01/28 05:01:16;;;;;;;15.05;5.07;;;;;;;2.84;100.00;102109.97;5027747;28;20045;-80
2023/01/28 05:03:42;;;;;;;16.13;5.70;;;;;;;2.83;100.00;102103.94;5033118;28;20382;-80
2023/01/28 05:06:10;;;;;;;16.02;4.80;;;;;;;2.87;100.00;102109.88;5009941;28;20037;-80
2023/01/28 05:08:42;;;;;;;16.75;6.00;;;;;;;2.85;100.00;102124.75;5035370;28;20139;-80
2023/01/28 05:11:07;;;;;;;18.80;5.88;;;;;;;2.83;100.00;102127.44;5044961;28;20028;-81
2023/01/28 05:13:34;;;;;;;22.52;6.13;;;;;;;2.83;100.00;102119.59;5020184;28;20042;-80
2023/01/28 05:16:00;;;;;;;15.15;5.40;;;;;;;2.85;100.00;102116.94;5021964;28;20041;-80
2023/01/28 05:18:26;;;;;;;14.85;5.53;;;;;;;2.82;100.00;102119.66;5029174;28;20389;-80
2023/01/28 05:21:14;;;;;;;8.98;5.75;;;;;;;2.80;100.00;102124.88;5012010;28;20048;-81
2023/01/28 05:23:40;;;;;;;17.17;5.43;;;;;;;2.81;100.00;102130.97;5044726;28;20511;-80
2023/01/28 05:26:06;;;;;;;10.68;5.82;;;;;;;2.84;100.00;102136.97;5040458;28;20115;-80
2023/01/28 05:28:33;;;;;;;13.50;5.38;;;;;;;2.88;100.00;102134.25;5020369;28;20041;-80
2023/01/28 05:31:03;;;;;;;15.27;4.95;;;;;;;2.90;100.00;102133.28;5031237;28;20076;-80
2023/01/28 05:33:29;;;;;;;18.67;5.78;;;;;;;2.88;100.00;102122.06;5046010;28;20326;-81
2023/01/28 05:35:55;;;;;;;20.85;5.68;;;;;;;2.89;100.00;102113.28;5030161;28;20128;-80
2023/01/28 05:38:21;;;;;;;18.80;5.25;;;;;;;2.90;100.00;102116.78;5011062;28;20046;-80
2023/01/28 05:40:47;;;;;;;24.65;6.00;;;;;;;2.91;100.00;102115.84;5024387;28;20068;-80
2023/01/28 05:43:14;;;;;;;18.27;5.57;;;;;;;2.92;100.00;102115.81;5021777;28;20036;-80
2023/01/28 05:45:58;;;;;;;17.55;6.10;;;;;;;2.91;100.00;102119.34;5007354;28;20040;-80
2023/01/28 05:48:50;;;;;;;15.48;5.07;;;;;;;2.93;100.00;102120.09;5043171;28;20071;-80
2023/01/28 05:51:38;;;;;;;16.63;5.80;;;;;;;2.94;100.00;102128.81;5016391;28;20036;-81
2023/01/28 05:54:05;;;;;;;15.88;5.47;;;;;;;2.94;100.00;102131.41;5018782;28;20048;-80
2023/01/28 05:56:32;;;;;;;18.25;6.03;;;;;;;2.91;100.00;102126.31;5018525;28;20060;-80
2023/01/28 05:58:58;;;;;;;22.85;5.72;;;;;;;2.91;100.00;102135.00;5027012;28;20033;-80
2023/01/28 06:01:24;;;;;;;21.60;5.93;;;;;;;2.91;100.00;102124.56;5037310;28;20044;-81
2023/01/28 06:03:53;;;;;;;16.60;6.18;;;;;;;2.92;100.00;102121.03;5051400;28;20033;-80
2023/01/28 06:06:19;;;;;;;20.33;6.32;;;;;;;2.92;100.00;102121.03;5003614;28;20661;-80
2023/01/28 06:08:45;;;;;;;14.35;5.82;;;;;;;2.95;100.00;102112.22;5046414;28;20033;-80
2023/01/28 06:11:15;;;;;;;21.23;6.50;;;;;;;2.96;100.00;102116.56;5017777;28;20040;-80
2023/01/28 06:13:42;;;;;;;21.77;6.25;;;;;;;2.96;100.00;102112.16;5037874;28;20041;-80
2023/01/28 06:16:24;;;;;;;16.20;6.43;;;;;;;2.96;100.00;102113.94;5000194;28;20041;-80
2023/01/28 06:19:08;;;;;;;19.15;6.47;;;;;;;2.98;100.00;102115.59;5056958;28;20370;-80
2023/01/28 06:21:34;;;;;;;15.70;5.95;;;;;;;2.97;100.00;102110.41;5041097;28;20040;-80
2023/01/28 06:24:00;;;;;;;17.17;5.20;;;;;;;2.92;100.00;102114.94;5031631;28;20033;-80
2023/01/28 06:26:26;;;;;;;21.63;6.20;;;;;;;2.89;100.00;102128.97;5055230;28;20040;-80
2023/01/28 06:28:51;;;;;;;20.35;6.15;;;;;;;2.91;100.00;102137.63;5037584;28;20082;-81
2023/01/28 06:31:18;;;;;;;15.80;6.15;;;;;;;2.92;100.00;102131.47;5042490;28;20028;-80
2023/01/28 06:33:44;;;;;;;19.67;5.95;;;;;;;2.91;100.00;102131.53;5059568;28;20048;-80
2023/01/28 06:36:09;;;;;;;26.70;6.45;;;;;;;2.91;100.00;102128.91;5043696;28;20028;-80
2023/01/28 06:38:35;;;;;;;21.95;6.40;;;;;;;2.91;100.00;102129.78;5031128;28;20412;-81
2023/01/28 06:41:02;;;;;;;18.48;5.85;;;;;;;2.90;100.00;102129.84;5031605;28;20381;-80
2023/01/28 06:43:29;;;;;;;23.02;6.63;;;;;;;2.90;100.00;102127.22;5043259;28;20485;-80
2023/01/28 06:45:56;;;;;;;17.25;5.80;;;;;;;2.89;100.00;102126.34;5072766;28;20035;-80
2023/01/28 06:48:23;;;;;;;22.67;6.50;;;;;;;2.89;100.00;102125.50;5067020;28;20031;-80
2023/01/28 06:50:49;;;;;;;22.05;6.60;;;;;;;2.86;100.00;102123.84;5067595;28;20416;-80
2023/01/28 06:53:16;;;;;;;14.52;6.00;;;;;;;2.88;100.00;102129.03;5064412;28;20056;-80
2023/01/28 06:55:41;;;;;;;14.45;6.03;;;;;;;2.86;100.00;102116.00;5047825;28;20049;-80
2023/01/28 06:58:07;;;;;;;28.05;7.20;;;;;;;2.89;100.00;102112.44;5035241;28;20078;-80
2023/01/28 07:00:33;;;;;;;28.77;7.78;;;;;;;2.86;100.00;102121.25;5065174;28;20036;-80
2023/01/28 07:02:59;;;;;;;18.98;7.07;;;;;;;2.84;100.00;102107.38;5031272;28;20047;-81
2023/01/28 07:05:25;;;;;;;19.58;7.13;;;;;;;2.88;100.00;102109.00;5042103;28;20029;-80
2023/01/28 07:07:51;;;;;;;21.35;8.10;;;;;;;2.89;100.00;102099.38;5047312;28;20032;-80
2023/01/28 07:10:17;;;;;;;22.67;6.82;;;;;;;2.91;100.00;102094.97;5051263;28;20028;-80
2023/01/28 07:12:42;;;;;;;20.48;6.78;;;;;;;2.92;100.00;102110.56;5043231;28;20377;-80
2023/01/28 07:15:13;;;;;;;19.30;6.03;;;;;;;2.94;100.00;102102.69;5057823;28;20044;-80
2023/01/28 07:17:40;;;;;;;14.23;6.55;;;;;;;2.97;100.00;102107.81;5048952;28;20194;-80
2023/01/28 07:20:07;;;;;;;22.17;7.22;;;;;;;3.02;100.00;102102.41;5070392;28;20499;-80
2023/01/28 07:22:33;;;;;;;21.33;6.88;;;;;;;3.03;100.00;102093.66;5048766;28;20549;-80
2023/01/28 07:25:00;;;;;;;18.65;6.43;;;;;;;3.03;100.00;102097.13;5076402;28;20117;-80
2023/01/28 07:27:26;;;;;;;19.05;6.78;;;;;;;3.07;100.00;102097.91;5047408;28;20096;-80
2023/01/28 07:29:52;;;;;;;17.50;6.18;;;;;;;3.09;100.00;102109.16;5055038;28;20072;-80
2023/01/28 07:32:17;;;;;;;17.45;6.35;;;;;;;3.12;100.00;102110.78;5049399;28;20149;-80
2023/01/28 07:34:43;;;;;;;15.38;5.68;;;;;;;3.14;100.00;102109.81;5036480;28;20093;-80
2023/01/28 07:37:09;;;;;;;18.55;6.40;;;;;;;3.16;100.00;102115.84;5060808;28;20041;-81
2023/01/28 07:39:35;;;;;;;15.73;5.35;;;;;;;3.17;100.00;102111.50;5053591;28;20052;-81
2023/01/28 07:42:01;;;;;;;18.15;6.20;;;;;;;3.22;100.00;102120.00;5013387;28;20067;-80
2023/01/28 07:44:37;;;;;;;12.13;5.72;;;;;;;3.24;100.00;102120.81;5054253;28;20058;-80
2023/01/28 07:47:05;;;;;;;27.63;6.68;;;;;;;3.27;100.00;102114.59;5049796;28;20035;-80
2023/01/28 07:49:32;;;;;;;20.50;6.90;;;;;;;3.26;100.00;102115.53;5060845;28;20028;-80
2023/01/28 07:51:57;;;;;;;20.48;5.63;;;;;;;3.26;100.00;102113.78;5046530;28;20039;-80
2023/01/28 07:54:23;;;;;;;13.75;6.05;;;;;;;3.28;100.00;102113.72;5064213;28;20028;-80
2023/01/28 07:56:49;;;;;;;18.08;6.38;;;;;;;3.30;100.00;102117.97;5052407;28;20463;-80
2023/01/28 07:59:15;;;;;;;20.98;6.72;;;;;;;3.34;100.00;102116.09;5078984;28;20024;-80
2023/01/28 08:01:41;;;;;;;16.95;6.35;;;;;;;3.33;100.00;102114.38;5050899;28;20051;-80
2023/01/28 08:04:07;;;;;;;23.92;5.95;;;;;;;3.30;100.00;102110.13;5066510;28;20036;-80
2023/01/28 08:06:36;;;;;;;16.13;5.88;;;;;;;3.28;100.00;102114.56;5027906;28;20486;-80
2023/01/28 08:09:07;;;;;;;28.17;6.30;;;;;;;3.30;100.00;102117.97;5052775;28;20025;-80
2023/01/28 08:11:36;;;;;;;15.68;5.75;;;;;;;3.30;100.00;102117.09;5042102;28;20504;-80
2023/01/28 08:14:02;;;;;;;27.83;5.07;;;;;;;3.30;100.00;102120.59;5028794;28;20036;-80
2023/01/28 08:16:28;;;;;;;15.57;5.10;;;;;;;3.29;100.00;102126.72;5075017;28;20033;-81
2023/01/28 08:18:54;;;;;;;27.95;5.75;;;;;;;3.27;100.00;102127.69;5049297;28;20033;-81
2023/01/28 08:21:20;;;;;;;19.60;6.10;;;;;;;3.25;100.00;102122.50;5032883;28;20040;-80
2023/01/28 08:23:46;;;;;;;8.00;4.18;;;;;;;3.23;100.00;102116.50;5064911;28;20628;-80
2023/01/28 08:26:12;;;;;;;15.82;4.90;;;;;;;3.25;100.00;102124.28;5052983;28;20060;-81
2023/01/28 08:28:37;;;;;;;12.38;4.82;;;;;;;3.24;100.00;102128.66;5054691;28;20032;-80
2023/01/28 08:31:03;;;;;;;13.98;5.35;;;;;;;3.28;100.00;102134.63;5043942;28;20545;-80
2023/01/28 08:33:29;;;;;;;9.43;4.40;;;;;;;3.32;100.00;102136.22;5043006;28;20458;-80
2023/01/28 08:35:55;;;;;;;11.02;4.43;;;;;;;3.38;100.00;102136.00;5014051;28;20032;-80
2023/01/28 08:38:21;;;;;;;14.27;5.63;;;;;;;3.42;100.00;102137.59;5042668;28;20067;-80
2023/01/28 08:40:49;;;;;;;16.08;4.47;;;;;;;3.45;100.00;102128.78;5045114;28;20057;-80
2023/01/28 08:43:16;;;;;;;14.68;4.93;;;;;;;3.46;100.00;102126.13;5026662;28;20393;-80
2023/01/28 08:45:41;;;;;;;8.18;4.05;;;;;;;3.47;100.00;102140.06;5028297;28;20060;-81
2023/01/28 08:48:13;;;;;;;10.63;4.88;;;;;;;3.47;100.00;102142.66;5029493;28;20374;-81
2023/01/28 08:50:39;;;;;;;17.20;5.68;;;;;;;3.43;100.00;102141.06;4999992;28;20087;-80
2023/01/28 08:53:09;;;;;;;17.83;4.53;;;;;;;3.44;100.00;102140.16;5030208;28;20029;-80
2023/01/28 08:55:35;;;;;;;14.07;4.68;;;;;;;3.43;100.00;102143.66;5042515;28;20029;-80
2023/01/28 08:58:03;;;;;;;10.20;4.30;;;;;;;3.46;100.00;102143.56;5046613;28;20031;-81
2023/01/28 09:00:29;;;;;;;12.68;4.55;;;;;;;3.49;100.00;102145.22;5017656;28;20041;-80
2023/01/28 09:02:54;;;;;;;10.95;4.47;;;;;;;3.54;100.00;102143.28;5026731;28;20533;-81
2023/01/28 09:05:20;;;;;;;15.88;4.93;;;;;;;3.59;100.00;102141.34;5029849;28;20028;-81
2023/01/28 09:07:47;;;;;;;12.18;4.82;;;;;;;3.64;100.00;102141.19;5041454;28;20149;-81
2023/01/28 09:10:15;;;;;;;10.43;3.90;;;;;;;3.68;100.00;102146.22;5027403;28;20458;-81
2023/01/28 09:12:41;;;;;;;13.95;4.43;;;;;;;3.74;100.00;102150.41;5011757;28;20047;-81
2023/01/28 09:15:08;;;;;;;9.35;4.35;;;;;;;3.77;100.00;102152.91;5047821;28;20083;-81
2023/01/28 09:17:34;;;;;;;12.07;4.57;;;;;;;3.81;100.00;102143.16;5038613;28;20037;-81
2023/01/28 09:20:00;;;;;;;13.82;4.88;;;;;;;3.82;100.00;102150.13;5018804;28;20148;-81
2023/01/28 09:22:25;;;;;;;11.48;4.32;;;;;;;3.87;100.00;102155.16;5014688;28;20102;-81
2023/01/28 09:24:51;;;;;;;8.55;3.97;;;;;;;3.91;100.00;102154.13;5045757;28;20032;-81
2023/01/28 09:27:17;;;;;;;10.40;4.18;;;;;;;3.95;100.00;102153.13;5016752;28;20078;-81
2023/01/28 09:29:43;;;;;;;9.75;4.45;;;;;;;3.95;100.00;102147.88;5043572;28;20421;-81
2023/01/28 09:32:09;;;;;;;9.32;3.97;;;;;;;3.96;100.00;102134.75;5037136;28;20041;-81
2023/01/28 09:34:35;;;;;;;10.48;4.47;;;;;;;3.98;100.00;102145.16;5038275;28;20036;-81
2023/01/28 09:37:01;;;;;;;8.68;4.57;;;;;;;4.00;100.00;102140.69;5024655;28;20025;-81
2023/01/28 09:39:29;;;;;;;14.90;5.30;;;;;;;4.06;100.00;102150.91;5026052;28;20079;-81
2023/01/28 09:42:08;;;;;;;12.38;5.30;;;;;;;4.10;100.00;102149.06;5033349;28;20030;-81
2023/01/28 09:44:53;;;;;;;12.65;5.45;;;;;;;4.19;100.00;102153.91;5013421;28;20080;-81
2023/01/28 09:47:26;;;;;;;13.88;4.70;;;;;;;4.22;100.00;102148.56;5039281;28;20127;-81
2023/01/28 09:49:56;;;;;;;12.10;4.10;;;;;;;4.26;100.00;102148.44;5019169;28;20393;-81
2023/01/28 09:52:24;;;;;;;9.20;4.80;;;;;;;4.31;100.00;102149.13;4965827;28;20482;-81
2023/01/28 09:55:00;;;;;;;10.48;5.07;;;;;;;4.33;100.00;102142.91;5037650;28;20029;-80
2023/01/28 09:57:41;;;;;;;9.05;4.55;;;;;;;4.36;100.00;102141.09;5036240;28;20029;-81
2023/01/28 10:00:19;;;;;;;12.05;4.68;;;;;;;4.38;100.00;102123.56;5038127;28;20056;-81
2023/01/28 10:03:03;;;;;;;8.73;4.30;;;;;;;4.40;100.00;102132.19;5038553;28;20067;-81
2023/01/28 10:05:31;;;;;;;15.93;5.07;;;;;;;4.41;100.00;102126.88;5025606;28;20025;-80
2023/01/28 10:08:06;;;;;;;7.68;3.85;;;;;;;4.42;100.00;102131.22;5030298;28;20036;-80
2023/01/28 10:10:42;;;;;;;8.95;4.00;;;;;;;4.44;100.00;102133.78;5008165;28;20043;-81
2023/01/28 10:13:14;;;;;;;7.07;3.95;;;;;;;4.45;100.00;102136.34;5040834;28;20032;-81
2023/01/28 10:15:58;;;;;;;8.60;3.28;;;;;;;4.48;100.00;102140.59;5004814;28;20060;-81
2023/01/28 10:18:41;;;;;;;5.20;3.58;;;;;;;4.49;100.00;102144.06;5065594;28;20045;-80
2023/01/28 10:21:19;;;;;;;5.43;3.33;;;;;;;4.51;100.00;102140.47;5029226;28;20129;-80
2023/01/28 10:23:49;;;;;;;7.82;4.15;;;;;;;4.55;100.00;102131.59;5025926;28;20048;-79
2023/01/28 10:26:37;;;;;;;10.60;4.20;;;;;;;4.64;100.00;102146.06;5037137;28;20045;-79
2023/01/28 10:29:17;;;;;;;7.28;4.03;;;;;;;4.71;100.00;102130.94;5055209;28;20041;-79
2023/01/28 10:32:02;;;;;;;5.88;3.35;;;;;;;4.77;100.00;102138.53;5073050;28;20032;-79
2023/01/28 10:34:28;;;;;;;5.97;3.33;;;;;;;4.79;100.00;102135.88;5049008;28;20095;-79
2023/01/28 10:36:56;;;;;;;4.00;3.47;;;;;;;4.84;100.00;102136.53;5064940;28;20024;-78
2023/01/28 10:39:24;;;;;;;6.43;3.40;;;;;;;4.93;100.00;102127.41;5046713;28;20033;-79
2023/01/28 10:41:50;;;;;;;4.90;3.42;;;;;;;4.97;100.00;102131.59;5063562;28;20477;-79
2023/01/28 10:44:24;;;;;;;4.50;3.65;;;;;;;5.04;100.00;102135.66;5039626;28;20035;-78
2023/01/28 10:46:52;;;;;;;4.35;3.17;;;;;;;5.07;100.00;102137.28;5038975;28;20495;-78
2023/01/28 10:49:24;;;;;;;3.20;2.90;;;;;;;5.08;100.00;102139.03;5067634;28;20541;-78
2023/01/28 10:51:49;;;;;;;5.13;3.38;;;;;;;5.13;100.00;102141.44;5043091;28;20037;-77
2023/01/28 10:54:21;;;;;;;8.18;3.53;;;;;;;5.21;100.00;102136.69;5061884;28;20078;-78
2023/01/28 10:56:50;;;;;;;3.92;2.83;;;;;;;5.24;100.00;102136.56;5056685;28;20037;-78
2023/01/28 10:59:29;;;;;;;4.43;3.35;;;;;;;5.27;100.00;102131.19;5066216;28;20041;-78
2023/01/28 11:01:58;;;;;;;4.10;3.03;;;;;;;5.33;100.00;102135.31;5029296;28;20111;-78
2023/01/28 11:04:28;;;;;;;4.72;3.20;;;;;;;5.39;100.00;102131.56;5039055;28;20032;-78
2023/01/28 11:07:01;;;;;;;4.78;2.65;;;;;;;5.43;100.00;102135.78;5054518;28;20039;-78
2023/01/28 11:09:36;;;;;;;5.30;2.97;;;;;;;5.44;100.00;102137.47;5064652;28;20056;-79
2023/01/28 11:12:12;;;;;;;5.30;2.80;;;;;;;5.49;100.00;102138.13;5044737;28;20135;-79
2023/01/28 11:14:49;;;;;;;3.88;2.63;;;;;;;5.48;100.00;102144.25;5054828;28;20044;-79
2023/01/28 11:17:16;;;;;;;3.22;2.88;;;;;;;5.53;100.00;102147.53;5040659;28;20120;-79
2023/01/28 11:19:42;;;;;;;3.00;2.53;;;;;;;5.57;100.00;102146.47;5048842;28;20079;-79
2023/01/28 11:22:20;;;;;;;4.70;2.30;;;;;;;5.65;100.00;102137.41;5061459;28;20078;-79
2023/01/28 11:24:46;;;;;;;3.28;2.85;;;;;;;5.66;100.00;102139.09;5035005;28;20443;-79
2023/01/28 11:27:17;;;;;;;2.53;2.08;;;;;;;5.71;100.00;102138.00;5040346;28;20041;-79
2023/01/28 11:29:43;;;;;;;4.18;2.42;;;;;;;5.74;100.00;102129.13;5055967;28;20029;-80
2023/01/28 11:32:20;;;;;;;3.38;2.67;;;;;;;5.83;100.00;102130.44;5013615;28;20128;-80
2023/01/28 11:34:56;;;;;;;3.13;2.30;;;;;;;5.87;100.00;102136.41;5039177;28;20112;-79
2023/01/28 11:37:24;;;;;;;3.20;2.55;;;;;;;5.90;100.00;102125.78;5047041;28;20056;-79
2023/01/28 11:40:23;;;;;;;3.67;2.55;;;;;;;5.96;100.00;102121.09;5032422;28;20523;-80
2023/01/28 11:42:51;;;;;;;2.92;2.13;;;;;;;5.98;100.00;102125.41;5029334;28;20453;-79
2023/01/28 11:45:38;;;;;;;5.90;2.42;;;;;;;6.01;100.00;102120.03;5051357;28;20432;-79
2023/01/28 11:48:17;;;;;;;3.90;2.38;;;;;;;6.05;100.00;102109.34;5006468;28;20044;-79
2023/01/28 11:50:56;;;;;;;3.70;2.00;;;;;;;6.10;100.00;102108.28;5050275;28;20045;-79
2023/01/28 11:53:39;;;;;;;3.38;2.88;;;;;;;6.20;100.00;102106.91;5032025;28;20481;-79
2023/01/28 11:56:44;;;;;;;2.95;2.47;;;;;;;6.26;100.00;102101.34;5029898;28;20032;-79
2023/01/28 11:59:35;;;;;;;3.00;2.25;;;;;;;6.37;100.00;102087.69;5024605;28;20037;-79
2023/01/28 12:02:07;;;;;;;2.15;1.95;;;;;;;6.38;100.00;102084.16;5041178;28;20295;-79
2023/01/28 12:05:01;;;;;;;5.13;2.85;;;;;;;6.44;100.00;102086.47;5012246;28;20040;-79
2023/01/28 12:08:04;;;;;;;1.90;1.80;;;;;;;6.48;100.00;102087.19;5028324;28;20048;-79